Catlett — AESZ — position and weather

sailwx.info

Track history (hours):
 
Tides and Currents Weather Stations Pressure Air Temp Water Temp Dewpoint Dewpoint Depression Visibility Wind Speed Wind Dir Waves Ship Positions

Catlett

Last reported at 2017-Sep-24 16:55 UTC. Time now 2017-Sep-25 00:39 UTC.
Position N 39°16' W 076°35'.

Type: Port tender. MMSI: 368926258.

Date/timePositionNaut miles runAvg speedWind from/ knotsBaromVisibWave heightAir tempDewpointWater temp
2017-Sep-24 16:55N 39°16' W 076°35'511.1
2017-Sep-24 16:29N 39°12' W 076°31'4 8.4
2017-Sep-24 16:01N 39°15' W 076°34'  
2017-Sep-21 19:00N 39°16' W 076°35'0 0.2
2017-Sep-21 18:30N 39°16' W 076°35'3 5.2
2017-Sep-21 18:01N 39°14' W 076°33'2 0.0
2017-Sep-19 17:48N 39°13' W 076°35'0 0.0
2017-Sep-19 17:29N 39°13' W 076°35'0 0.0
2017-Sep-19 17:00N 39°13' W 076°35'0 0.0
2017-Sep-19 16:26N 39°13' W 076°35'0 0.0
2017-Sep-19 15:54N 39°13' W 076°35'0 0.0
2017-Sep-19 15:26N 39°13' W 076°35'0 0.0
2017-Sep-19 14:44N 39°13' W 076°35'0 0.0
2017-Sep-19 14:30N 39°13' W 076°35'0 0.0
2017-Sep-19 14:00N 39°13' W 076°35'0 0.0
2017-Sep-19 13:29N 39°13' W 076°35'0 0.0
2017-Sep-19 13:00N 39°13' W 076°35'0 0.0
2017-Sep-19 12:28N 39°13' W 076°35'0 0.2
2017-Sep-19 12:00N 39°13' W 076°35'3 7.0
2017-Sep-19 11:31N 39°16' W 076°35'0 0.0
2017-Sep-18 17:57N 39°16' W 076°35'0 0.1
2017-Sep-18 17:31N 39°16' W 076°35'5 9.4
2017-Sep-18 17:01N 39°12' W 076°31'2 4.4
2017-Sep-18 16:31N 39°14' W 076°32'2 4.9
2017-Sep-18 16:01N 39°16' W 076°34'0 0.7
2017-Sep-18 15:31N 39°16' W 076°35'0 0.0
2017-Sep-18 15:00N 39°16' W 076°35'  
2017-Sep-15 15:33N 39°16' W 076°35'0 0.1
2017-Sep-15 15:30N 39°16' W 076°35'1 1.3
2017-Sep-15 15:00N 39°15' W 076°35'0 0.2
2017-Sep-15 14:30N 39°16' W 076°35'1 1.1
2017-Sep-15 14:00N 39°15' W 076°36'0 0.5
2017-Sep-15 13:31N 39°15' W 076°36'0 0.9
2017-Sep-15 13:01N 39°15' W 076°35'1 1.4
2017-Sep-15 12:30N 39°16' W 076°35'0 0.0
2017-Sep-15 12:01N 39°16' W 076°35'0 0.0
2017-Sep-14 19:22N 39°16' W 076°35'2 5.1
2017-Sep-14 19:01N 39°15' W 076°33'3 5.5
2017-Sep-14 18:31N 39°14' W 076°30'  
Track history (hours):
 
Tides and Currents Weather Stations Pressure Air Temp Water Temp Dewpoint Dewpoint Depression Visibility Wind Speed Wind Dir Waves Ship Positions

Catlett

Last reported at 2017-Sep-24 16:55 UTC. Time now 2017-Sep-25 00:39 UTC.
Position N 39°16' W 076°35'.

Type: Port tender. MMSI: 368926258.

Date/timePositionNaut miles runAvg speedWind from/ knotsBaromVisibWave heightAir tempDewpointWater temp
2017-Sep-24 16:55N 39°16' W 076°35'511.1
2017-Sep-24 16:29N 39°12' W 076°31'4 8.4
2017-Sep-24 16:01N 39°15' W 076°34'  
2017-Sep-21 19:00N 39°16' W 076°35'0 0.2
2017-Sep-21 18:30N 39°16' W 076°35'3 5.2
2017-Sep-21 18:01N 39°14' W 076°33'2 0.0
2017-Sep-19 17:48N 39°13' W 076°35'0 0.0
2017-Sep-19 17:29N 39°13' W 076°35'0 0.0
2017-Sep-19 17:00N 39°13' W 076°35'0 0.0
2017-Sep-19 16:26N 39°13' W 076°35'0 0.0
2017-Sep-19 15:54N 39°13' W 076°35'0 0.0
2017-Sep-19 15:26N 39°13' W 076°35'0 0.0
2017-Sep-19 14:44N 39°13' W 076°35'0 0.0
2017-Sep-19 14:30N 39°13' W 076°35'0 0.0
2017-Sep-19 14:00N 39°13' W 076°35'0 0.0
2017-Sep-19 13:29N 39°13' W 076°35'0 0.0
2017-Sep-19 13:00N 39°13' W 076°35'0 0.0
2017-Sep-19 12:28N 39°13' W 076°35'0 0.2
2017-Sep-19 12:00N 39°13' W 076°35'3 7.0
2017-Sep-19 11:31N 39°16' W 076°35'0 0.0
2017-Sep-18 17:57N 39°16' W 076°35'0 0.1
2017-Sep-18 17:31N 39°16' W 076°35'5 9.4
2017-Sep-18 17:01N 39°12' W 076°31'2 4.4
2017-Sep-18 16:31N 39°14' W 076°32'2 4.9
2017-Sep-18 16:01N 39°16' W 076°34'0 0.7
2017-Sep-18 15:31N 39°16' W 076°35'0 0.0
2017-Sep-18 15:00N 39°16' W 076°35'  
2017-Sep-15 15:33N 39°16' W 076°35'0 0.1
2017-Sep-15 15:30N 39°16' W 076°35'1 1.3
2017-Sep-15 15:00N 39°15' W 076°35'0 0.2
2017-Sep-15 14:30N 39°16' W 076°35'1 1.1
2017-Sep-15 14:00N 39°15' W 076°36'0 0.5
2017-Sep-15 13:31N 39°15' W 076°36'0 0.9
2017-Sep-15 13:01N 39°15' W 076°35'1 1.4
2017-Sep-15 12:30N 39°16' W 076°35'0 0.0
2017-Sep-15 12:01N 39°16' W 076°35'0 0.0
2017-Sep-14 19:22N 39°16' W 076°35'2 5.1
2017-Sep-14 19:01N 39°15' W 076°33'3 5.5
2017-Sep-14 18:31N 39°14' W 076°30'  

Dump ship's entire track history